Time;durP1;ratioP1;P1;durP2;ratioP2;P2;SDS_P1;SDS_P2;PMS_P1;PMS_P2;Temp;Humidity;BMP_temperature;BMP_pressure;BME280_temperature;BME280_humidity;BME280_pressure;Samples;Min_cycle;Max_cycle;Signal;HPM_P1;HPM_P2
2023/11/21 00:00:35;;;;;;;2.23;1.77;;;8.00;99.90;;;;;;5133022;27;20641;-74
2023/11/21 00:03:02;;;;;;;1.40;1.30;;;8.00;99.90;;;;;;5132019;27;20633;-74
2023/11/21 00:05:28;;;;;;;1.50;1.33;;;7.90;99.90;;;;;;5132061;27;20635;-74
2023/11/21 00:07:56;;;;;;;1.93;1.73;;;7.90;99.90;;;;;;5131877;27;20628;-74
2023/11/21 00:10:23;;;;;;;2.10;1.30;;;7.90;99.90;;;;;;5126156;27;21057;-74
2023/11/21 00:12:50;;;;;;;3.43;1.60;;;7.90;99.90;;;;;;5133637;27;20622;-74
2023/11/21 00:15:17;;;;;;;3.90;1.63;;;7.90;99.90;;;;;;5128417;27;20981;-74
2023/11/21 00:17:44;;;;;;;4.07;2.37;;;7.90;99.90;;;;;;5130874;27;20666;-74
2023/11/21 00:20:12;;;;;;;4.30;1.47;;;8.00;99.90;;;;;;5129913;27;20614;-74
2023/11/21 00:22:40;;;;;;;1.13;1.03;;;7.90;99.90;;;;;;5138124;27;20723;-74
2023/11/21 00:25:09;;;;;;;3.13;1.43;;;7.90;99.90;;;;;;5132779;27;20648;-74
2023/11/21 00:27:36;;;;;;;4.27;1.40;;;8.00;99.90;;;;;;5146364;27;20987;-74
2023/11/21 00:30:05;;;;;;;3.43;1.63;;;8.00;99.90;;;;;;5146162;27;20625;-75
2023/11/21 00:32:32;;;;;;;1.00;1.00;;;8.00;99.90;;;;;;5147129;27;20618;-75
2023/11/21 00:34:59;;;;;;;1.80;1.70;;;7.90;99.90;;;;;;5144622;27;20630;-75
2023/11/21 00:37:26;;;;;;;1.50;1.00;;;7.80;99.90;;;;;;5145718;27;20657;-75
2023/11/21 00:39:52;;;;;;;2.27;1.70;;;7.90;99.90;;;;;;5142708;27;21265;-72
2023/11/21 00:42:21;;;;;;;2.87;1.20;;;7.90;99.90;;;;;;5140860;27;21288;-73
2023/11/21 00:44:48;;;;;;;2.17;1.20;;;7.90;99.90;;;;;;5138370;27;20650;-73
2023/11/21 00:47:15;;;;;;;1.47;1.30;;;8.10;99.90;;;;;;5140245;27;20627;-73
2023/11/21 00:49:41;;;;;;;2.70;2.00;;;8.00;99.90;;;;;;5136639;27;20618;-73
2023/11/21 00:52:08;;;;;;;3.97;1.60;;;7.90;99.90;;;;;;5137738;27;20615;-73
2023/11/21 00:54:35;;;;;;;1.20;1.10;;;7.90;99.90;;;;;;5140553;27;20620;-73
2023/11/21 00:57:03;;;;;;;1.70;1.60;;;7.90;99.90;;;;;;5136348;27;20654;-74
2023/11/21 00:59:31;;;;;;;3.87;1.57;;;7.80;99.90;;;;;;5134173;27;20963;-74
2023/11/21 01:02:00;;;;;;;1.53;1.33;;;7.90;99.90;;;;;;5131943;27;20629;-73
2023/11/21 01:04:27;;;;;;;3.23;1.00;;;7.80;99.90;;;;;;5131840;27;20638;-73
2023/11/21 01:06:53;;;;;;;2.40;1.10;;;7.90;99.90;;;;;;5134801;27;20622;-74
2023/11/21 01:09:20;;;;;;;1.80;1.13;;;7.80;99.90;;;;;;5124533;27;20631;-73
2023/11/21 01:11:47;;;;;;;1.17;1.07;;;7.80;99.90;;;;;;5131497;27;20658;-74
2023/11/21 01:14:14;;;;;;;1.53;1.17;;;7.90;99.90;;;;;;5129109;27;20712;-74
2023/11/21 01:16:42;;;;;;;0.87;0.87;;;7.90;99.90;;;;;;5131241;27;20636;-73
2023/11/21 01:19:09;;;;;;;0.90;0.90;;;7.90;99.90;;;;;;5127086;27;20622;-73
2023/11/21 01:21:35;;;;;;;2.23;1.60;;;7.90;99.90;;;;;;5126034;27;20641;-74
2023/11/21 01:24:03;;;;;;;0.93;0.90;;;7.90;99.90;;;;;;5135754;27;21242;-74
2023/11/21 01:26:29;;;;;;;1.23;1.03;;;7.90;99.90;;;;;;5135346;27;20625;-74
2023/11/21 01:28:56;;;;;;;1.33;0.90;;;7.90;99.90;;;;;;5140678;27;20631;-73
2023/11/21 01:31:23;;;;;;;1.63;1.50;;;8.00;99.90;;;;;;5137063;27;20636;-73
2023/11/21 01:33:51;;;;;;;1.00;1.00;;;8.00;99.90;;;;;;5136224;27;20626;-74
2023/11/21 01:36:18;;;;;;;1.10;1.00;;;8.00;99.90;;;;;;5135939;27;20621;-74
2023/11/21 01:38:45;;;;;;;1.90;1.20;;;8.00;99.90;;;;;;5131693;27;20663;-73
2023/11/21 01:41:13;;;;;;;5.97;1.30;;;7.90;99.90;;;;;;5133549;27;20731;-73
2023/11/21 01:43:39;;;;;;;1.07;0.90;;;8.00;99.90;;;;;;5133467;27;20711;-74
2023/11/21 01:46:07;;;;;;;1.20;1.10;;;7.90;99.90;;;;;;5130886;27;20630;-74
2023/11/21 01:48:34;;;;;;;1.37;0.90;;;7.90;99.90;;;;;;5132955;27;20981;-73
2023/11/21 01:51:03;;;;;;;1.10;1.00;;;8.00;99.90;;;;;;5129849;27;20623;-74
2023/11/21 01:53:31;;;;;;;0.83;0.80;;;7.90;99.90;;;;;;5136439;27;20807;-73
2023/11/21 01:55:59;;;;;;;2.00;0.97;;;7.90;99.90;;;;;;5129090;27;20619;-73
2023/11/21 01:58:26;;;;;;;1.57;1.20;;;7.80;99.90;;;;;;5134408;27;20666;-74
2023/11/21 02:00:54;;;;;;;1.00;0.90;;;7.90;99.90;;;;;;5133198;27;20629;-74
2023/11/21 02:03:21;;;;;;;1.33;1.10;;;7.90;99.90;;;;;;5129040;27;20630;-74
2023/11/21 02:05:48;;;;;;;1.40;1.00;;;7.90;99.90;;;;;;5134557;27;20614;-73
2023/11/21 02:08:16;;;;;;;0.57;0.57;;;8.00;99.90;;;;;;5128638;27;20627;-74
2023/11/21 02:10:43;;;;;;;3.23;0.80;;;8.00;99.90;;;;;;5131034;27;20668;-74
2023/11/21 02:13:10;;;;;;;0.90;0.80;;;8.00;99.90;;;;;;5130198;27;20661;-74
2023/11/21 02:15:38;;;;;;;1.40;1.30;;;8.00;99.90;;;;;;5129899;27;20618;-74
2023/11/21 02:18:06;;;;;;;1.47;1.20;;;7.90;99.90;;;;;;5117565;27;20686;-74
2023/11/21 02:20:34;;;;;;;1.60;1.17;;;7.80;99.90;;;;;;5125481;27;20623;-74
2023/11/21 02:23:04;;;;;;;1.17;0.90;;;7.90;99.90;;;;;;5121878;27;21089;-74
2023/11/21 02:25:34;;;;;;;0.80;0.70;;;7.90;99.90;;;;;;5133069;27;20636;-73
2023/11/21 02:28:03;;;;;;;2.93;1.10;;;7.90;99.90;;;;;;5133129;27;20623;-74
2023/11/21 02:30:32;;;;;;;3.43;1.57;;;7.90;99.90;;;;;;5142354;27;20977;-73
2023/11/21 02:33:00;;;;;;;1.53;0.87;;;7.80;99.90;;;;;;5132049;27;20663;-74
2023/11/21 02:35:28;;;;;;;0.60;0.53;;;7.80;99.90;;;;;;5132162;27;21258;-74
2023/11/21 02:37:56;;;;;;;0.80;0.80;;;7.80;99.90;;;;;;5142093;27;20673;-74
2023/11/21 02:40:26;;;;;;;1.10;1.00;;;7.70;99.90;;;;;;5144232;27;20984;-74
2023/11/21 02:42:54;;;;;;;0.80;0.80;;;7.60;99.90;;;;;;5132260;27;20616;-74
2023/11/21 02:45:22;;;;;;;1.00;0.90;;;7.60;99.90;;;;;;5137338;27;20634;-73
2023/11/21 02:47:50;;;;;;;1.90;0.87;;;7.70;99.90;;;;;;5139981;27;20706;-73
2023/11/21 02:50:18;;;;;;;1.07;0.60;;;7.60;99.90;;;;;;5126581;27;20611;-73
2023/11/21 02:52:45;;;;;;;0.60;0.60;;;7.60;99.90;;;;;;5130892;27;20698;-73
2023/11/21 02:55:12;;;;;;;2.67;0.97;;;7.60;99.90;;;;;;5131596;27;20630;-73
2023/11/21 02:57:39;;;;;;;1.23;1.00;;;7.60;99.90;;;;;;5138681;27;20653;-73
2023/11/21 03:00:07;;;;;;;0.70;0.60;;;7.60;99.90;;;;;;5123849;27;20631;-74
2023/11/21 03:02:36;;;;;;;0.60;0.50;;;7.60;99.90;;;;;;5134802;27;20625;-73
2023/11/21 03:05:04;;;;;;;1.70;1.07;;;7.60;99.90;;;;;;5130488;27;20619;-73
2023/11/21 03:07:31;;;;;;;0.80;0.70;;;7.70;99.90;;;;;;5131598;27;20627;-73
2023/11/21 03:09:58;;;;;;;0.60;0.50;;;7.60;99.90;;;;;;5128447;27;20618;-73
2023/11/21 03:12:25;;;;;;;2.57;1.07;;;7.60;99.90;;;;;;5127200;27;20653;-73
2023/11/21 03:14:55;;;;;;;0.50;0.50;;;7.80;99.90;;;;;;5132001;27;20717;-73
2023/11/21 03:17:22;;;;;;;2.20;0.87;;;7.70;99.90;;;;;;5125254;27;20638;-73
2023/11/21 03:19:49;;;;;;;0.50;0.37;;;7.60;99.90;;;;;;5128553;27;20627;-73
2023/11/21 03:22:17;;;;;;;0.83;0.53;;;7.60;99.90;;;;;;5120835;27;20976;-73
2023/11/21 03:24:44;;;;;;;0.50;0.50;;;7.60;99.90;;;;;;5122499;27;20619;-74
2023/11/21 03:27:12;;;;;;;0.80;0.77;;;7.60;99.90;;;;;;5126473;27;20667;-73
2023/11/21 03:29:40;;;;;;;1.90;0.50;;;7.60;99.90;;;;;;5137975;27;20638;-74
2023/11/21 03:32:09;;;;;;;0.70;0.53;;;7.60;99.90;;;;;;5136782;27;20933;-73
2023/11/21 03:34:36;;;;;;;0.50;0.47;;;7.70;99.90;;;;;;5140249;27;20748;-73
2023/11/21 03:37:04;;;;;;;2.40;0.80;;;7.80;99.90;;;;;;5134594;27;20618;-73
2023/11/21 03:39:32;;;;;;;0.43;0.30;;;7.80;99.90;;;;;;5146849;27;20701;-73
2023/11/21 03:41:59;;;;;;;0.80;0.60;;;7.70;99.90;;;;;;5137706;27;21382;-73
2023/11/21 03:44:27;;;;;;;0.40;0.30;;;7.70;99.90;;;;;;5130780;27;20628;-73
2023/11/21 03:46:54;;;;;;;0.80;0.70;;;7.70;99.90;;;;;;5134755;27;20667;-73
2023/11/21 03:49:24;;;;;;;1.03;1.03;;;7.70;99.90;;;;;;5137222;27;21327;-73
2023/11/21 03:51:51;;;;;;;0.90;0.90;;;7.60;99.90;;;;;;5138322;27;21049;-73
2023/11/21 03:54:18;;;;;;;0.77;0.70;;;7.50;99.90;;;;;;5138724;27;20650;-73
2023/11/21 03:56:45;;;;;;;3.47;0.60;;;7.50;99.90;;;;;;5137476;27;20993;-73
2023/11/21 03:59:11;;;;;;;0.60;0.60;;;7.60;99.90;;;;;;5139523;27;20665;-73
2023/11/21 04:01:38;;;;;;;2.20;0.60;;;7.50;99.90;;;;;;5140658;27;20618;-73
2023/11/21 04:04:05;;;;;;;0.40;0.40;;;7.60;99.90;;;;;;5125992;27;20622;-73
2023/11/21 04:06:33;;;;;;;0.57;0.57;;;7.60;99.90;;;;;;5141500;27;20975;-73
2023/11/21 04:09:00;;;;;;;0.40;0.40;;;7.70;99.90;;;;;;5137591;27;20630;-73
2023/11/21 04:11:29;;;;;;;0.57;0.43;;;7.70;99.90;;;;;;5138818;27;20629;-73
2023/11/21 04:13:56;;;;;;;2.27;0.80;;;7.70;99.90;;;;;;5136900;27;21237;-73
2023/11/21 04:16:23;;;;;;;0.40;0.30;;;7.70;99.90;;;;;;5134231;27;20618;-74
2023/11/21 04:18:50;;;;;;;0.40;0.30;;;7.60;99.90;;;;;;5129548;27;20754;-73
2023/11/21 04:21:16;;;;;;;0.70;0.43;;;7.70;99.90;;;;;;5133001;27;21181;-73
2023/11/21 04:23:44;;;;;;;4.50;0.77;;;7.70;99.90;;;;;;5133762;27;21110;-73
2023/11/21 04:26:12;;;;;;;1.23;0.93;;;7.70;99.90;;;;;;5128977;27;20634;-73
2023/11/21 04:28:38;;;;;;;1.67;0.70;;;7.70;99.90;;;;;;5131605;27;20718;-73
2023/11/21 04:31:06;;;;;;;0.63;0.63;;;7.60;99.90;;;;;;5121271;27;20615;-73
2023/11/21 04:33:33;;;;;;;0.50;0.40;;;7.70;99.90;;;;;;5127400;27;20970;-73
2023/11/21 04:36:00;;;;;;;1.27;0.83;;;7.60;99.90;;;;;;5125845;27;20624;-73
2023/11/21 04:38:27;;;;;;;0.50;0.40;;;7.60;99.90;;;;;;5131955;27;20668;-73
2023/11/21 04:40:55;;;;;;;0.53;0.40;;;7.60;99.90;;;;;;5140215;27;20627;-73
2023/11/21 04:43:22;;;;;;;1.53;0.57;;;7.60;99.90;;;;;;5135923;27;20626;-73
2023/11/21 04:45:48;;;;;;;1.33;0.60;;;7.70;99.90;;;;;;5133497;27;20627;-73
2023/11/21 04:48:15;;;;;;;1.50;0.80;;;7.70;99.90;;;;;;5134695;27;20639;-73
2023/11/21 04:50:42;;;;;;;0.40;0.27;;;7.70;99.90;;;;;;5123631;27;21192;-73
2023/11/21 04:53:09;;;;;;;0.83;0.60;;;7.70;99.90;;;;;;5134053;27;20971;-73
2023/11/21 04:55:36;;;;;;;0.90;0.80;;;7.60;99.90;;;;;;5139878;27;20622;-73
2023/11/21 04:58:04;;;;;;;0.43;0.40;;;7.60;99.90;;;;;;5139553;27;21249;-73
2023/11/21 05:00:31;;;;;;;0.50;0.50;;;7.60;99.90;;;;;;5131338;27;21146;-73
2023/11/21 05:02:58;;;;;;;0.90;0.67;;;7.60;99.90;;;;;;5138666;27;21162;-73
2023/11/21 05:05:24;;;;;;;1.00;0.40;;;7.70;99.90;;;;;;5137988;27;20620;-73
2023/11/21 05:07:53;;;;;;;0.50;0.47;;;7.60;99.90;;;;;;5136885;27;20625;-73
2023/11/21 05:10:20;;;;;;;0.50;0.50;;;7.60;99.90;;;;;;5130949;27;20627;-73
2023/11/21 05:12:46;;;;;;;0.30;0.30;;;7.50;99.90;;;;;;5136929;27;20665;-73
2023/11/21 05:15:17;;;;;;;0.60;0.60;;;7.50;99.90;;;;;;5133495;27;20714;-73
2023/11/21 05:17:45;;;;;;;0.60;0.60;;;7.40;99.90;;;;;;5136176;27;20669;-74
2023/11/21 05:20:13;;;;;;;0.73;0.47;;;7.50;99.90;;;;;;5132843;27;21003;-73
2023/11/21 05:22:41;;;;;;;1.03;0.97;;;7.40;99.90;;;;;;5133092;27;20629;-73
2023/11/21 05:25:09;;;;;;;0.60;0.60;;;7.40;99.90;;;;;;5121491;27;20654;-73
2023/11/21 05:27:36;;;;;;;1.20;1.10;;;7.30;99.90;;;;;;5128759;27;20623;-73
2023/11/21 05:30:05;;;;;;;1.23;0.50;;;7.40;99.90;;;;;;5129355;27;20626;-73
2023/11/21 05:32:33;;;;;;;0.50;0.43;;;7.40;99.90;;;;;;5124027;27;20630;-76
2023/11/21 05:35:00;;;;;;;0.50;0.37;;;7.40;99.90;;;;;;5124899;27;20681;-76
2023/11/21 05:37:27;;;;;;;3.50;1.00;;;7.40;99.90;;;;;;5129775;27;20758;-76
2023/11/21 05:39:56;;;;;;;5.93;0.60;;;7.40;99.90;;;;;;5143219;27;20676;-76
2023/11/21 05:42:23;;;;;;;0.50;0.40;;;7.40;99.90;;;;;;5129264;27;21020;-75
2023/11/21 05:44:50;;;;;;;0.60;0.60;;;7.40;99.90;;;;;;5135218;27;21252;-74
2023/11/21 05:47:17;;;;;;;0.60;0.57;;;7.40;99.90;;;;;;5130885;27;21110;-74
2023/11/21 05:49:50;;;;;;;1.53;0.80;;;7.40;99.90;;;;;;5143766;27;21209;-74
2023/11/21 05:52:16;;;;;;;2.77;0.73;;;7.40;99.90;;;;;;5135674;27;20623;-77
2023/11/21 05:54:43;;;;;;;0.77;0.60;;;7.40;99.90;;;;;;5137310;27;20621;-73
2023/11/21 05:57:10;;;;;;;0.50;0.40;;;7.40;99.90;;;;;;5135236;27;20707;-73
2023/11/21 05:59:37;;;;;;;0.50;0.50;;;7.40;99.90;;;;;;5133186;27;21248;-73
2023/11/21 06:02:05;;;;;;;0.73;0.73;;;7.40;99.90;;;;;;5131431;27;20952;-73
2023/11/21 06:04:31;;;;;;;0.60;0.60;;;7.50;99.90;;;;;;5134838;27;20698;-72
2023/11/21 06:07:00;;;;;;;0.87;0.47;;;7.50;99.90;;;;;;5133506;27;20737;-72
2023/11/21 06:09:27;;;;;;;0.77;0.77;;;7.30;99.90;;;;;;5128951;27;20655;-73
2023/11/21 06:11:54;;;;;;;1.07;1.03;;;7.40;99.90;;;;;;5126349;27;20717;-73
2023/11/21 06:14:21;;;;;;;0.60;0.60;;;7.40;99.90;;;;;;5131122;27;20659;-73
2023/11/21 06:16:50;;;;;;;0.70;0.70;;;7.40;99.90;;;;;;5130466;27;20292;-73
2023/11/21 06:19:17;;;;;;;0.70;0.70;;;7.30;99.90;;;;;;5131397;27;20658;-74
2023/11/21 06:21:46;;;;;;;1.17;0.70;;;7.30;99.90;;;;;;5133923;27;20627;-74
2023/11/21 06:24:15;;;;;;;0.90;0.60;;;7.30;99.90;;;;;;5127044;27;20637;-74
2023/11/21 06:26:44;;;;;;;1.93;0.90;;;7.20;99.90;;;;;;5131469;27;21226;-74
2023/11/21 06:29:10;;;;;;;1.23;0.73;;;7.20;99.90;;;;;;5120510;27;20754;-74
2023/11/21 06:31:37;;;;;;;0.90;0.90;;;7.30;99.90;;;;;;5128571;27;20630;-74
2023/11/21 06:34:04;;;;;;;0.67;0.53;;;7.20;99.90;;;;;;5126895;27;20615;-74
2023/11/21 06:36:31;;;;;;;0.60;0.57;;;7.20;99.90;;;;;;5125833;27;21028;-74
2023/11/21 06:38:57;;;;;;;0.50;0.50;;;7.20;99.90;;;;;;5144223;27;21006;-73
2023/11/21 06:41:26;;;;;;;2.23;1.00;;;7.10;99.90;;;;;;5137479;27;21263;-73
2023/11/21 06:43:53;;;;;;;1.17;0.90;;;7.20;99.90;;;;;;5130081;27;21016;-73
2023/11/21 06:46:19;;;;;;;0.77;0.50;;;7.20;99.90;;;;;;5141801;27;20629;-73
2023/11/21 06:48:46;;;;;;;0.60;0.43;;;7.20;99.90;;;;;;5142968;27;20718;-73
2023/11/21 06:51:14;;;;;;;1.67;0.80;;;7.20;99.90;;;;;;5134995;27;20623;-73
2023/11/21 06:53:41;;;;;;;0.87;0.83;;;7.20;99.90;;;;;;5134358;27;20618;-73
2023/11/21 06:56:16;;;;;;;1.17;0.97;;;7.30;99.90;;;;;;5138089;27;21029;-75
2023/11/21 06:58:46;;;;;;;0.90;0.90;;;7.30;99.90;;;;;;5133758;27;21017;-77
2023/11/21 07:01:13;;;;;;;1.53;0.97;;;7.30;99.90;;;;;;5118903;27;20635;-78
2023/11/21 07:03:40;;;;;;;0.80;0.70;;;7.30;99.90;;;;;;5133819;27;20630;-78
2023/11/21 07:06:08;;;;;;;1.10;0.57;;;7.30;99.90;;;;;;5145305;27;20667;-78
2023/11/21 07:08:35;;;;;;;0.93;0.80;;;7.40;99.90;;;;;;5152208;27;20625;-78
2023/11/21 07:11:02;;;;;;;1.83;1.30;;;7.50;99.90;;;;;;5145101;27;21165;-78
2023/11/21 07:13:29;;;;;;;0.60;0.60;;;7.50;99.90;;;;;;5151188;27;20615;-78
2023/11/21 07:15:58;;;;;;;1.30;0.50;;;7.50;99.90;;;;;;5154493;27;20613;-78
2023/11/21 07:18:25;;;;;;;1.53;0.97;;;7.50;99.90;;;;;;5141351;27;20619;-78
2023/11/21 07:20:52;;;;;;;1.30;0.83;;;7.70;99.90;;;;;;5148465;27;20633;-78
2023/11/21 07:23:19;;;;;;;1.50;1.13;;;7.70;99.90;;;;;;5138575;27;20995;-78
2023/11/21 07:25:47;;;;;;;1.10;0.80;;;7.60;99.90;;;;;;5137011;27;20638;-77
2023/11/21 07:28:13;;;;;;;0.93;0.83;;;7.70;99.90;;;;;;5144525;27;20629;-77
2023/11/21 07:30:40;;;;;;;0.60;0.60;;;7.60;99.90;;;;;;5150659;27;20732;-78
2023/11/21 07:33:08;;;;;;;1.10;1.00;;;7.60;99.90;;;;;;5141380;27;20646;-78
2023/11/21 07:35:35;;;;;;;1.27;1.17;;;7.60;99.90;;;;;;5140698;27;20626;-78
2023/11/21 07:38:02;;;;;;;2.90;1.80;;;7.60;99.90;;;;;;5145708;27;20629;-77
2023/11/21 07:40:28;;;;;;;0.60;0.60;;;7.40;99.90;;;;;;5164496;27;21169;-78
2023/11/21 07:42:57;;;;;;;3.47;0.70;;;7.50;99.90;;;;;;5153053;27;20630;-78
2023/11/21 07:45:24;;;;;;;1.57;0.70;;;7.50;99.90;;;;;;5153463;27;20663;-78
2023/11/21 07:47:50;;;;;;;0.87;0.87;;;7.70;99.90;;;;;;5159343;27;20641;-78
2023/11/21 07:50:19;;;;;;;1.53;1.43;;;7.70;99.90;;;;;;5155449;27;20620;-78
2023/11/21 07:52:46;;;;;;;1.63;1.00;;;7.70;99.90;;;;;;5160398;27;20637;-78
2023/11/21 07:55:13;;;;;;;2.20;1.23;;;7.70;99.90;;;;;;5163309;27;20614;-78
2023/11/21 07:57:40;;;;;;;1.20;0.80;;;7.80;99.90;;;;;;5174211;27;20977;-78
2023/11/21 08:00:12;;;;;;;0.90;0.90;;;7.80;99.90;;;;;;5168260;27;20649;-78
2023/11/21 08:02:39;;;;;;;1.00;1.00;;;7.90;99.90;;;;;;5164062;27;20709;-78
2023/11/21 08:05:06;;;;;;;1.73;1.27;;;7.90;99.90;;;;;;5172066;27;20974;-77
2023/11/21 08:07:35;;;;;;;1.10;1.00;;;8.00;99.90;;;;;;5170878;27;20625;-78
2023/11/21 08:10:04;;;;;;;3.90;1.63;;;7.90;99.90;;;;;;5167493;27;20629;-78
2023/11/21 08:12:31;;;;;;;1.43;1.17;;;8.00;99.90;;;;;;5172472;27;20632;-78
2023/11/21 08:14:58;;;;;;;3.77;1.70;;;8.00;99.90;;;;;;5168642;27;20728;-78
2023/11/21 08:17:25;;;;;;;2.40;1.77;;;8.00;99.90;;;;;;5163607;27;20653;-78
2023/11/21 08:19:52;;;;;;;1.53;1.40;;;8.00;99.90;;;;;;5170176;27;20669;-77
2023/11/21 08:22:19;;;;;;;1.23;1.13;;;8.10;99.90;;;;;;5165470;27;20634;-78
2023/11/21 08:24:47;;;;;;;1.67;1.30;;;8.00;99.90;;;;;;5170716;27;20629;-77
2023/11/21 08:27:15;;;;;;;1.17;0.90;;;8.00;99.90;;;;;;5167869;27;20636;-77
2023/11/21 08:29:42;;;;;;;0.93;0.93;;;8.10;99.90;;;;;;5163490;27;20681;-78
2023/11/21 08:32:09;;;;;;;1.97;1.87;;;8.10;99.90;;;;;;5160964;27;20963;-77
2023/11/21 08:34:36;;;;;;;1.17;1.07;;;8.10;99.90;;;;;;5160239;27;20939;-78
2023/11/21 08:37:03;;;;;;;2.13;1.93;;;8.10;99.90;;;;;;5170088;27;21190;-77
2023/11/21 08:39:30;;;;;;;1.93;1.70;;;8.10;99.90;;;;;;5167377;27;20662;-78
2023/11/21 08:41:58;;;;;;;1.33;1.23;;;8.10;99.90;;;;;;5180477;27;20627;-78
2023/11/21 08:44:25;;;;;;;1.20;0.97;;;8.10;99.90;;;;;;5170431;27;20744;-78
2023/11/21 08:46:52;;;;;;;2.50;1.20;;;8.10;99.90;;;;;;5176823;27;20744;-78
2023/11/21 08:49:18;;;;;;;2.00;1.30;;;8.10;99.90;;;;;;5174776;27;20621;-78
2023/11/21 08:51:45;;;;;;;3.47;1.30;;;8.30;99.90;;;;;;5176070;27;20625;-78
2023/11/21 08:54:12;;;;;;;1.37;1.30;;;8.30;99.90;;;;;;5173678;27;20641;-78
2023/11/21 08:56:39;;;;;;;1.13;1.07;;;8.30;99.90;;;;;;5174368;27;20613;-78
2023/11/21 08:59:07;;;;;;;1.70;1.50;;;8.40;99.90;;;;;;5170115;27;20736;-78
2023/11/21 09:01:34;;;;;;;1.50;1.40;;;8.50;99.90;;;;;;5171034;27;21200;-78
2023/11/21 09:04:02;;;;;;;1.30;1.20;;;8.70;99.90;;;;;;5168821;27;20717;-78
2023/11/21 09:06:29;;;;;;;1.67;1.10;;;8.70;99.90;;;;;;5173724;27;20621;-78
2023/11/21 09:08:55;;;;;;;1.40;1.10;;;8.90;99.90;;;;;;5169111;27;20730;-78
2023/11/21 09:11:23;;;;;;;1.00;1.00;;;9.00;99.90;;;;;;5169587;27;20638;-75
2023/11/21 09:13:51;;;;;;;1.60;1.20;;;9.00;99.90;;;;;;5168016;27;21534;-76
2023/11/21 09:16:19;;;;;;;2.03;1.83;;;9.00;99.90;;;;;;5164572;27;20646;-76
2023/11/21 09:18:46;;;;;;;2.50;1.37;;;9.10;99.90;;;;;;5172003;27;21155;-77
2023/11/21 09:21:13;;;;;;;1.43;1.33;;;9.20;99.90;;;;;;5165000;27;21263;-78
2023/11/21 09:23:39;;;;;;;1.13;1.13;;;9.30;99.90;;;;;;5169493;27;21230;-76
2023/11/21 09:26:07;;;;;;;2.10;1.47;;;9.30;99.90;;;;;;5161189;27;20622;-77
2023/11/21 09:28:33;;;;;;;1.50;0.83;;;9.50;99.90;;;;;;5162215;27;21049;-77
2023/11/21 09:31:03;;;;;;;2.93;1.17;;;9.40;99.90;;;;;;5162830;27;20823;-77
2023/11/21 09:33:31;;;;;;;0.70;0.70;;;9.20;99.90;;;;;;5171380;27;20980;-77
2023/11/21 09:35:58;;;;;;;1.17;0.80;;;9.30;99.90;;;;;;5167065;27;20645;-77
2023/11/21 09:38:25;;;;;;;0.80;0.80;;;9.40;99.90;;;;;;5163051;27;20628;-77
2023/11/21 09:40:53;;;;;;;1.07;0.80;;;9.40;99.90;;;;;;5169006;27;20671;-77
2023/11/21 09:43:22;;;;;;;0.63;0.60;;;9.30;99.90;;;;;;5169037;27;20672;-77
2023/11/21 09:45:54;;;;;;;1.03;0.60;;;9.20;99.90;;;;;;5169217;27;20635;-77
2023/11/21 09:48:21;;;;;;;0.40;0.40;;;9.10;99.90;;;;;;5162609;27;20642;-77
2023/11/21 09:50:51;;;;;;;0.60;0.60;;;9.00;99.90;;;;;;5169161;27;20624;-77
2023/11/21 09:53:20;;;;;;;2.10;0.30;;;9.10;99.90;;;;;;5168106;27;20626;-77
2023/11/21 09:55:50;;;;;;;0.80;0.40;;;9.00;99.90;;;;;;5172997;27;20666;-77
2023/11/21 09:58:19;;;;;;;0.40;0.40;;;9.10;99.90;;;;;;5168362;27;20729;-77
2023/11/21 10:00:46;;;;;;;0.93;0.73;;;9.20;99.90;;;;;;5167193;27;20659;-77
2023/11/21 10:03:14;;;;;;;0.40;0.30;;;9.10;99.90;;;;;;5168677;27;20617;-77
2023/11/21 10:05:45;;;;;;;0.73;0.60;;;9.10;99.90;;;;;;5169051;27;20613;-77
2023/11/21 10:08:14;;;;;;;0.60;0.50;;;9.10;99.90;;;;;;5173292;27;20728;-77
2023/11/21 10:10:45;;;;;;;1.03;0.70;;;9.00;99.90;;;;;;5167437;27;20716;-77
2023/11/21 10:13:16;;;;;;;0.30;0.30;;;9.00;99.90;;;;;;5167570;27;21189;-77
2023/11/21 10:15:48;;;;;;;0.90;0.90;;;9.00;99.90;;;;;;5166756;27;20624;-77
2023/11/21 10:18:16;;;;;;;0.70;0.70;;;9.00;99.90;;;;;;5165387;27;20622;-77
2023/11/21 10:20:46;;;;;;;0.77;0.77;;;9.10;99.90;;;;;;5168560;27;20773;-77
2023/11/21 10:23:15;;;;;;;0.70;0.70;;;9.10;99.90;;;;;;5155002;27;20994;-77
2023/11/21 10:25:42;;;;;;;0.80;0.80;;;9.00;99.90;;;;;;5162975;27;20621;-77
2023/11/21 10:28:11;;;;;;;0.60;0.60;;;9.00;99.90;;;;;;5164080;27;21155;-77
2023/11/21 10:30:39;;;;;;;0.70;0.60;;;8.90;99.90;;;;;;5164013;27;21039;-77
2023/11/21 10:33:08;;;;;;;0.60;0.60;;;8.80;99.90;;;;;;5169771;27;20642;-77
2023/11/21 10:35:46;;;;;;;1.57;1.10;;;8.70;99.90;;;;;;5161431;27;20629;-77
2023/11/21 10:38:15;;;;;;;0.57;0.57;;;8.60;99.90;;;;;;5156744;27;20630;-77
2023/11/21 10:40:42;;;;;;;0.77;0.77;;;8.60;99.90;;;;;;5164523;27;20783;-77
2023/11/21 10:43:10;;;;;;;1.47;0.80;;;8.50;99.90;;;;;;5161353;27;20621;-77
2023/11/21 10:45:38;;;;;;;0.77;0.43;;;8.60;99.90;;;;;;5174427;27;20715;-77
2023/11/21 10:48:08;;;;;;;0.60;0.50;;;8.60;99.90;;;;;;5173990;27;20640;-77
2023/11/21 10:50:36;;;;;;;0.67;0.67;;;8.70;99.90;;;;;;5172654;27;20681;-77
2023/11/21 10:53:04;;;;;;;0.70;0.50;;;8.60;99.90;;;;;;5170891;27;20643;-77
2023/11/21 10:55:33;;;;;;;1.00;0.73;;;8.50;99.90;;;;;;5170403;27;20628;-77
2023/11/21 10:58:04;;;;;;;2.70;0.90;;;8.50;99.90;;;;;;5169728;27;20635;-77
2023/11/21 11:00:32;;;;;;;0.70;0.70;;;8.60;99.90;;;;;;5176264;27;20668;-77
2023/11/21 11:03:00;;;;;;;1.17;1.07;;;8.70;99.90;;;;;;5169766;27;20617;-77
2023/11/21 11:05:28;;;;;;;1.30;1.00;;;8.70;99.90;;;;;;5169128;27;20743;-76
2023/11/21 11:08:01;;;;;;;1.00;0.80;;;8.70;99.90;;;;;;5167034;27;20197;-76
2023/11/21 11:10:29;;;;;;;0.97;0.97;;;9.00;99.90;;;;;;5177077;27;20629;-77
2023/11/21 11:12:58;;;;;;;1.13;1.03;;;8.90;99.90;;;;;;5171424;27;20654;-76
2023/11/21 11:15:25;;;;;;;3.30;1.20;;;8.80;99.90;;;;;;5171486;27;20739;-75
2023/11/21 11:17:56;;;;;;;1.43;1.10;;;8.80;99.90;;;;;;5172965;27;20719;-73
2023/11/21 11:20:24;;;;;;;1.10;1.00;;;8.80;99.90;;;;;;5160546;27;20668;-74
2023/11/21 11:23:05;;;;;;;0.83;0.60;;;8.80;99.90;;;;;;5161152;27;20675;-75
2023/11/21 11:25:56;;;;;;;0.90;0.90;;;8.80;99.90;;;;;;5174258;27;20710;-76
2023/11/21 11:28:33;;;;;;;2.00;0.90;;;8.80;99.90;;;;;;5165536;27;20622;-74
2023/11/21 11:31:11;;;;;;;1.40;1.30;;;8.70;99.90;;;;;;5164602;27;20648;-74
2023/11/21 11:33:43;;;;;;;3.63;1.03;;;8.70;99.90;;;;;;5167131;27;20628;-74
2023/11/21 11:36:18;;;;;;;0.70;0.67;;;8.70;99.90;;;;;;5171297;27;21616;-75
2023/11/21 11:38:49;;;;;;;1.10;0.80;;;8.80;99.90;;;;;;5170448;27;20710;-75
2023/11/21 11:41:26;;;;;;;0.70;0.70;;;8.80;99.90;;;;;;5164610;27;20734;-74
2023/11/21 11:43:54;;;;;;;0.60;0.50;;;8.90;99.90;;;;;;5168186;27;20620;-75
2023/11/21 11:46:22;;;;;;;0.40;0.40;;;8.90;99.90;;;;;;5190892;27;20711;-75
2023/11/21 11:48:49;;;;;;;0.60;0.60;;;8.80;99.90;;;;;;5187930;27;20628;-77
2023/11/21 11:51:19;;;;;;;2.73;0.53;;;8.70;99.90;;;;;;5170650;27;20747;-77
2023/11/21 11:53:47;;;;;;;0.47;0.47;;;8.90;99.90;;;;;;5178394;27;20641;-76
2023/11/21 11:56:26;;;;;;;1.80;0.87;;;8.90;99.90;;;;;;5169701;27;20629;-75
2023/11/21 11:58:56;;;;;;;0.50;0.50;;;8.80;99.90;;;;;;5170317;27;20626;-74
2023/11/21 12:01:25;;;;;;;1.10;0.70;;;8.90;99.90;;;;;;5181462;27;20700;-74
2023/11/21 12:04:30;;;;;;;0.40;0.40;;;9.10;99.90;;;;;;5177619;27;20623;-74
2023/11/21 12:07:00;;;;;;;1.37;1.00;;;9.20;99.90;;;;;;5174893;27;20711;-75
2023/11/21 12:09:28;;;;;;;0.80;0.80;;;9.20;99.90;;;;;;5173738;27;20721;-79
2023/11/21 12:11:56;;;;;;;0.60;0.60;;;9.20;99.90;;;;;;5170368;27;20726;-76
2023/11/21 12:14:25;;;;;;;0.63;0.63;;;9.30;99.90;;;;;;5175177;27;20639;-76
2023/11/21 12:16:52;;;;;;;0.90;0.90;;;9.30;99.90;;;;;;5167521;27;20626;-76
2023/11/21 12:19:20;;;;;;;0.70;0.70;;;9.30;99.90;;;;;;5170181;27;21208;-76
2023/11/21 12:21:48;;;;;;;1.17;1.07;;;9.50;99.90;;;;;;5171207;27;21231;-76
2023/11/21 12:24:16;;;;;;;0.70;0.50;;;9.60;99.90;;;;;;5166387;27;20633;-76
2023/11/21 12:26:43;;;;;;;0.70;0.50;;;9.70;99.90;;;;;;5170452;27;20662;-77
2023/11/21 12:29:10;;;;;;;0.97;0.90;;;9.60;99.90;;;;;;5170284;27;20628;-76
2023/11/21 12:31:39;;;;;;;0.80;0.80;;;9.50;99.90;;;;;;5170665;27;20626;-76
2023/11/21 12:34:06;;;;;;;0.83;0.83;;;9.40;99.90;;;;;;5171515;27;20650;-76
2023/11/21 12:36:34;;;;;;;1.77;0.80;;;9.60;99.90;;;;;;5170077;27;20622;-77
2023/11/21 12:39:02;;;;;;;1.37;0.93;;;9.60;99.90;;;;;;5169751;27;20622;-77
2023/11/21 12:41:30;;;;;;;1.10;0.93;;;9.60;99.90;;;;;;5159380;27;20720;-76
2023/11/21 12:43:57;;;;;;;0.80;0.70;;;9.70;99.90;;;;;;5172683;27;20624;-76
2023/11/21 12:46:25;;;;;;;0.57;0.57;;;9.70;99.90;;;;;;5190014;27;20968;-76
2023/11/21 12:48:54;;;;;;;1.27;1.17;;;9.60;99.90;;;;;;5184161;27;20619;-76
2023/11/21 12:51:22;;;;;;;0.60;0.60;;;9.70;99.90;;;;;;5156215;27;21166;-76
2023/11/21 12:53:49;;;;;;;0.80;0.80;;;9.50;99.90;;;;;;5169319;27;20616;-76
2023/11/21 12:56:17;;;;;;;1.40;1.03;;;9.60;99.90;;;;;;5177643;27;20748;-76
2023/11/21 12:58:47;;;;;;;1.20;1.07;;;9.50;99.90;;;;;;5173271;27;20639;-76
2023/11/21 13:01:18;;;;;;;1.53;1.10;;;9.60;99.90;;;;;;5179329;27;21183;-76